Ryoka Maru No.103 — JG5593 — position and weather

sailwx.info

Track history (hours):
 
Tides and Currents Weather Stations Pressure Air Temp Water Temp Dewpoint Dewpoint Depression Visibility Wind Speed Wind Dir Waves Ship Positions

Ryoka Maru No.103

Last reported at 2017-Oct-02 14:19 UTC. Time now 2017-Oct-20 04:57 UTC.
Position N 34°49' E 139°09'.
Warning: this ship's position is 17 days out of date.

Length 69 m; draft 4.5 m.

Type: Tanker. MMSI: 431401796.

Date/timePositionNaut miles runAvg speedWind from/ knotsBaromVisibWave heightAir tempDewpointWater temp
2017-Oct-02 14:19N 34°49' E 139°09'412.2
2017-Oct-02 13:59N 34°52' E 139°12'1211.7
2017-Oct-02 12:55N 34°60' E 139°24'511.9
2017-Oct-02 12:30N 35°02' E 139°29'612.4
2017-Oct-02 11:59N 35°05' E 139°36'612.8
2017-Oct-02 11:30N 35°08' E 139°43'612.9
2017-Oct-02 11:00N 35°14' E 139°46'612.9
2017-Oct-02 10:31N 35°20' E 139°43'611.9
2017-Oct-02 10:01N 35°25' E 139°44'613.0
2017-Oct-02 09:31N 35°29' E 139°50'7 1.3
2017-Oct-02 03:53N 35°32' E 139°59'410.5
2017-Oct-02 03:30N 35°29' E 139°55'1 0.3
2017-Oct-02 01:18N 35°29' E 139°55'0 0.0
2017-Oct-02 00:51N 35°29' E 139°55'0 0.0
2017-Oct-02 00:30N 35°29' E 139°55'0 0.0
2017-Oct-01 21:15N 35°29' E 139°55'0 0.0
2017-Oct-01 20:42N 35°29' E 139°55'0 0.0
2017-Oct-01 20:21N 35°29' E 139°55'0 0.0
2017-Oct-01 18:36N 35°29' E 139°55'0 0.0
2017-Oct-01 18:15N 35°29' E 139°55'0 0.1
2017-Oct-01 17:54N 35°29' E 139°55'0 0.1
2017-Oct-01 17:30N 35°29' E 139°55'0 0.0
2017-Oct-01 17:00N 35°29' E 139°55'0 0.1
2017-Oct-01 16:30N 35°29' E 139°55'0 0.1
2017-Oct-01 16:00N 35°29' E 139°55'0 0.1
2017-Oct-01 15:24N 35°29' E 139°55'0 0.0
2017-Oct-01 15:00N 35°29' E 139°55'0 0.0
2017-Oct-01 14:24N 35°29' E 139°55'0 0.0
2017-Oct-01 13:57N 35°29' E 139°55'0 0.1
2017-Oct-01 13:30N 35°29' E 139°55'0 0.0
2017-Oct-01 13:00N 35°29' E 139°55'0 0.0
2017-Oct-01 12:30N 35°29' E 139°55'0 0.0
2017-Oct-01 12:00N 35°29' E 139°55'0 0.0
2017-Oct-01 04:51N 35°29' E 139°55'  
2017-Sep-27 22:01N 34°36' E 134°54'011.3
2017-Sep-27 21:59N 34°36' E 134°55'610.7
2017-Sep-27 21:28N 34°37' E 135°01'510.0
2017-Sep-27 21:00N 34°34' E 135°05'812.8
2017-Sep-27 20:24N 34°27' E 135°02'612.7
2017-Sep-27 19:55N 34°21' E 135°01'612.2
2017-Sep-27 19:27N 34°15' E 134°59'612.7
2017-Sep-27 19:00N 34°10' E 134°59'212 4.7
2017-Sep-25 21:39N 34°48' E 139°12'2210.2
2017-Sep-25 19:27N 34°52' E 139°39'2 0.1
2017-Sep-24 12:41N 34°50' E 139°39'413.2
2017-Sep-24 12:26N 34°50' E 139°35'  
Track history (hours):
 
Tides and Currents Weather Stations Pressure Air Temp Water Temp Dewpoint Dewpoint Depression Visibility Wind Speed Wind Dir Waves Ship Positions

Ryoka Maru No.103

Last reported at 2017-Oct-02 14:19 UTC. Time now 2017-Oct-20 04:57 UTC.
Position N 34°49' E 139°09'.
Warning: this ship's position is 17 days out of date.

Length 69 m; draft 4.5 m.

Type: Tanker. MMSI: 431401796.

Date/timePositionNaut miles runAvg speedWind from/ knotsBaromVisibWave heightAir tempDewpointWater temp
2017-Oct-02 14:19N 34°49' E 139°09'412.2
2017-Oct-02 13:59N 34°52' E 139°12'1211.7
2017-Oct-02 12:55N 34°60' E 139°24'511.9
2017-Oct-02 12:30N 35°02' E 139°29'612.4
2017-Oct-02 11:59N 35°05' E 139°36'612.8
2017-Oct-02 11:30N 35°08' E 139°43'612.9
2017-Oct-02 11:00N 35°14' E 139°46'612.9
2017-Oct-02 10:31N 35°20' E 139°43'611.9
2017-Oct-02 10:01N 35°25' E 139°44'613.0
2017-Oct-02 09:31N 35°29' E 139°50'7 1.3
2017-Oct-02 03:53N 35°32' E 139°59'410.5
2017-Oct-02 03:30N 35°29' E 139°55'1 0.3
2017-Oct-02 01:18N 35°29' E 139°55'0 0.0
2017-Oct-02 00:51N 35°29' E 139°55'0 0.0
2017-Oct-02 00:30N 35°29' E 139°55'0 0.0
2017-Oct-01 21:15N 35°29' E 139°55'0 0.0
2017-Oct-01 20:42N 35°29' E 139°55'0 0.0
2017-Oct-01 20:21N 35°29' E 139°55'0 0.0
2017-Oct-01 18:36N 35°29' E 139°55'0 0.0
2017-Oct-01 18:15N 35°29' E 139°55'0 0.1
2017-Oct-01 17:54N 35°29' E 139°55'0 0.1
2017-Oct-01 17:30N 35°29' E 139°55'0 0.0
2017-Oct-01 17:00N 35°29' E 139°55'0 0.1
2017-Oct-01 16:30N 35°29' E 139°55'0 0.1
2017-Oct-01 16:00N 35°29' E 139°55'0 0.1
2017-Oct-01 15:24N 35°29' E 139°55'0 0.0
2017-Oct-01 15:00N 35°29' E 139°55'0 0.0
2017-Oct-01 14:24N 35°29' E 139°55'0 0.0
2017-Oct-01 13:57N 35°29' E 139°55'0 0.1
2017-Oct-01 13:30N 35°29' E 139°55'0 0.0
2017-Oct-01 13:00N 35°29' E 139°55'0 0.0
2017-Oct-01 12:30N 35°29' E 139°55'0 0.0
2017-Oct-01 12:00N 35°29' E 139°55'0 0.0
2017-Oct-01 04:51N 35°29' E 139°55'  
2017-Sep-27 22:01N 34°36' E 134°54'011.3
2017-Sep-27 21:59N 34°36' E 134°55'610.7
2017-Sep-27 21:28N 34°37' E 135°01'510.0
2017-Sep-27 21:00N 34°34' E 135°05'812.8
2017-Sep-27 20:24N 34°27' E 135°02'612.7
2017-Sep-27 19:55N 34°21' E 135°01'612.2
2017-Sep-27 19:27N 34°15' E 134°59'612.7
2017-Sep-27 19:00N 34°10' E 134°59'212 4.7
2017-Sep-25 21:39N 34°48' E 139°12'2210.2
2017-Sep-25 19:27N 34°52' E 139°39'2 0.1
2017-Sep-24 12:41N 34°50' E 139°39'413.2
2017-Sep-24 12:26N 34°50' E 139°35'  

Dump ship's entire track history